createdAt,value
2018-05-12T00:00:00.839Z,0
2018-05-12T00:01:02.509Z,0
2018-05-12T00:02:04.154Z,0
2018-05-12T00:03:05.809Z,0
2018-05-12T00:04:07.466Z,0
2018-05-12T00:05:09.115Z,0
2018-05-12T00:06:10.763Z,0
2018-05-12T00:07:12.420Z,0
2018-05-12T00:08:14.181Z,0
2018-05-12T00:09:15.834Z,0
2018-05-12T00:10:17.483Z,0
2018-05-12T00:11:19.134Z,0
2018-05-12T00:12:20.787Z,0
2018-05-12T00:13:22.444Z,0
2018-05-12T00:14:24.098Z,0
2018-05-12T00:15:25.752Z,0
2018-05-12T00:16:27.396Z,0
2018-05-12T00:17:29.045Z,0
2018-05-12T00:18:30.691Z,0
2018-05-12T00:19:32.353Z,0
2018-05-12T00:20:33.999Z,0
2018-05-12T00:21:35.662Z,0
2018-05-12T00:22:37.307Z,0
2018-05-12T00:23:38.958Z,0
2018-05-12T00:24:40.600Z,0
2018-05-12T00:25:42.262Z,0
2018-05-12T00:26:43.945Z,0
2018-05-12T00:27:45.598Z,0
2018-05-12T00:28:47.290Z,0
2018-05-12T00:29:48.909Z,0
2018-05-12T00:30:50.554Z,0
2018-05-12T00:31:52.210Z,0
2018-05-12T00:32:53.861Z,0
2018-05-12T00:33:55.519Z,0
2018-05-12T00:34:57.176Z,0
2018-05-12T00:35:58.840Z,0
2018-05-12T00:37:00.497Z,0
2018-05-12T00:38:02.166Z,0
2018-05-12T00:39:03.814Z,0
2018-05-12T00:40:05.467Z,0
2018-05-12T00:41:07.121Z,0
2018-05-12T00:42:08.766Z,0
2018-05-12T00:43:10.415Z,0
2018-05-12T00:44:12.074Z,0
2018-05-12T00:45:13.725Z,0
2018-05-12T00:46:15.379Z,0
2018-05-12T00:47:17.030Z,0
2018-05-12T00:48:18.692Z,0
2018-05-12T00:49:20.339Z,0
2018-05-12T00:50:21.993Z,0
2018-05-12T00:51:23.647Z,0
2018-05-12T00:52:25.303Z,0
2018-05-12T00:53:26.963Z,0
2018-05-12T00:54:28.611Z,0
2018-05-12T00:55:30.263Z,0
2018-05-12T00:56:31.902Z,0
2018-05-12T00:57:33.565Z,0
2018-05-12T00:58:35.226Z,0
2018-05-12T00:59:36.914Z,0
2018-05-12T01:00:38.562Z,0
2018-05-12T01:01:40.215Z,0
2018-05-12T01:02:41.868Z,0
2018-05-12T01:03:43.526Z,0
2018-05-12T01:04:45.182Z,0
2018-05-12T01:05:46.837Z,0
2018-05-12T01:06:48.496Z,0
2018-05-12T01:07:50.144Z,0
2018-05-12T01:08:51.795Z,0
2018-05-12T01:09:53.448Z,0
2018-05-12T01:10:55.100Z,0
2018-05-12T01:11:56.752Z,0
2018-05-12T01:12:58.408Z,0
2018-05-12T01:14:00.061Z,0
2018-05-12T01:15:01.718Z,0
2018-05-12T01:16:03.371Z,0
2018-05-12T01:17:05.038Z,0
2018-05-12T01:18:06.684Z,0
2018-05-12T01:19:08.336Z,0
2018-05-12T01:20:09.999Z,0
2018-05-12T01:21:11.645Z,0
2018-05-12T01:22:13.299Z,0
2018-05-12T01:23:14.989Z,0
2018-05-12T01:24:16.644Z,0
2018-05-12T01:25:18.292Z,0
2018-05-12T01:26:19.951Z,0
2018-05-12T01:27:21.608Z,0
2018-05-12T01:28:23.272Z,0
2018-05-12T01:29:24.907Z,0
2018-05-12T01:30:26.560Z,0
2018-05-12T01:31:28.216Z,0
2018-05-12T01:32:29.865Z,0
2018-05-12T01:33:31.521Z,0
2018-05-12T01:34:33.164Z,0
2018-05-12T01:35:34.818Z,0
2018-05-12T01:36:36.470Z,0
2018-05-12T01:37:38.150Z,0
2018-05-12T01:38:39.800Z,0
2018-05-12T01:39:41.460Z,0
2018-05-12T01:40:43.126Z,0
2018-05-12T01:41:44.776Z,0
2018-05-12T01:42:46.433Z,0
2018-05-12T01:43:48.116Z,0
2018-05-12T01:44:49.775Z,0
2018-05-12T01:45:51.438Z,0
2018-05-12T01:46:53.095Z,0
2018-05-12T01:47:54.752Z,0
2018-05-12T01:48:56.398Z,0
2018-05-12T01:49:58.055Z,0
2018-05-12T01:50:59.709Z,0
2018-05-12T01:52:01.353Z,0
2018-05-12T01:53:03.023Z,0
2018-05-12T01:54:04.679Z,0
2018-05-12T01:55:06.327Z,0
2018-05-12T01:56:07.976Z,0
2018-05-12T02:02:00.117Z,0
2018-05-12T02:03:01.763Z,0
2018-05-12T02:04:53.644Z,0
2018-05-12T02:05:55.296Z,0
2018-05-12T02:07:47.205Z,0
2018-05-12T02:08:48.855Z,0
2018-05-12T02:09:50.505Z,0
2018-05-12T02:10:52.151Z,0
2018-05-12T02:11:53.808Z,0
2018-05-12T02:12:55.451Z,0
2018-05-12T02:13:57.104Z,0
2018-05-12T02:14:58.753Z,0
2018-05-12T02:16:00.410Z,0
2018-05-12T02:17:02.053Z,0
2018-05-12T02:18:03.701Z,0
2018-05-12T02:19:05.351Z,0
2018-05-12T02:20:07.005Z,0
2018-05-12T02:21:08.664Z,0
2018-05-12T02:22:10.321Z,0
2018-05-12T02:23:11.983Z,0
2018-05-12T02:24:13.637Z,0
2018-05-12T02:25:15.295Z,0
2018-05-12T02:26:16.955Z,0
2018-05-12T02:27:18.609Z,0
2018-05-12T02:28:20.258Z,0
2018-05-12T02:29:21.912Z,0
2018-05-12T02:30:23.564Z,0
2018-05-12T02:31:25.206Z,0
2018-05-12T02:32:26.857Z,0
2018-05-12T02:33:28.517Z,0
2018-05-12T02:34:30.171Z,0
2018-05-12T02:35:31.825Z,0
2018-05-12T02:36:33.467Z,0
2018-05-12T02:37:35.116Z,0
2018-05-12T02:38:36.771Z,0
2018-05-12T02:39:38.418Z,0
2018-05-12T02:40:40.069Z,0
2018-05-12T02:41:41.734Z,0
2018-05-12T02:42:43.387Z,0
2018-05-12T02:43:45.048Z,0
2018-05-12T02:44:46.701Z,0
2018-05-12T02:45:48.371Z,0
2018-05-12T02:46:50.028Z,0
2018-05-12T02:47:51.670Z,0
2018-05-12T02:48:53.389Z,0
2018-05-12T02:49:55.034Z,0
2018-05-12T02:50:56.696Z,0
2018-05-12T02:51:58.343Z,0
2018-05-12T02:53:00.000Z,0
2018-05-12T02:54:01.653Z,0
2018-05-12T02:55:03.313Z,0
2018-05-12T02:56:04.968Z,0
2018-05-12T02:57:06.615Z,0
2018-05-12T02:58:08.270Z,0
2018-05-12T02:59:09.921Z,0
2018-05-12T03:00:11.585Z,0
2018-05-12T03:01:13.241Z,0
2018-05-12T03:02:14.894Z,0
2018-05-12T03:03:16.549Z,0
2018-05-12T03:04:18.211Z,0
2018-05-12T03:05:19.870Z,0
2018-05-12T03:06:21.529Z,0
2018-05-12T03:07:23.180Z,0
2018-05-12T03:08:24.837Z,0
2018-05-12T03:09:26.485Z,0
2018-05-12T03:10:28.139Z,0
2018-05-12T03:11:29.792Z,0
2018-05-12T03:12:31.459Z,0
2018-05-12T03:13:33.120Z,0
2018-05-12T03:14:34.766Z,0
2018-05-12T03:15:36.417Z,0
2018-05-12T03:16:38.065Z,0
2018-05-12T03:17:39.712Z,0
2018-05-12T03:18:41.367Z,0
2018-05-12T03:19:43.044Z,0
2018-05-12T03:20:44.696Z,0
2018-05-12T03:21:46.347Z,0
2018-05-12T03:22:48.016Z,0
2018-05-12T03:23:49.682Z,0
2018-05-12T03:24:51.329Z,0
2018-05-12T03:25:52.975Z,0
2018-05-12T03:26:54.635Z,0
2018-05-12T03:27:56.280Z,0
2018-05-12T03:28:57.933Z,0
2018-05-12T03:29:59.599Z,0
2018-05-12T03:31:01.248Z,0
2018-05-12T03:32:02.918Z,5
2018-05-12T03:33:04.565Z,5
2018-05-12T03:34:06.215Z,5
2018-05-12T03:35:07.869Z,5
2018-05-12T03:36:09.518Z,5
2018-05-12T03:37:11.171Z,5
2018-05-12T03:38:12.866Z,5
2018-05-12T03:39:14.527Z,10
2018-05-12T03:40:16.179Z,10
2018-05-12T03:41:17.829Z,10
2018-05-12T03:42:19.485Z,10
2018-05-12T03:43:21.129Z,10
2018-05-12T03:44:22.793Z,15
2018-05-12T03:45:24.427Z,15
2018-05-12T03:46:26.092Z,15
2018-05-12T03:47:27.742Z,15
2018-05-12T03:48:29.400Z,20
2018-05-12T03:49:31.049Z,20
2018-05-12T03:50:32.707Z,20
2018-05-12T03:51:34.349Z,25
2018-05-12T03:52:36.009Z,25
2018-05-12T03:53:37.666Z,25
2018-05-12T03:54:39.331Z,30
2018-05-12T03:55:40.980Z,30
2018-05-12T03:56:42.631Z,30
2018-05-12T03:57:44.287Z,35
2018-05-12T03:58:45.939Z,35
2018-05-12T03:59:47.618Z,35
2018-05-12T04:00:49.278Z,40
2018-05-12T04:01:50.933Z,40
2018-05-12T04:02:52.593Z,45
2018-05-12T04:03:54.245Z,45
2018-05-12T04:04:55.892Z,45
2018-05-12T04:05:57.551Z,50
2018-05-12T04:06:59.216Z,50
2018-05-12T04:08:00.869Z,55
2018-05-12T04:09:02.527Z,55
2018-05-12T04:10:04.189Z,60
2018-05-12T04:11:05.840Z,60
2018-05-12T04:12:07.498Z,65
2018-05-12T04:13:09.168Z,65
2018-05-12T04:14:10.802Z,65
2018-05-12T04:15:12.454Z,70
2018-05-12T04:16:14.110Z,70
2018-05-12T04:17:15.771Z,75
2018-05-12T04:18:17.433Z,75
2018-05-12T04:19:19.089Z,80
2018-05-12T04:20:20.749Z,80
2018-05-12T04:21:22.404Z,85
2018-05-12T04:22:24.062Z,85
2018-05-12T04:23:25.717Z,90
2018-05-12T04:24:27.532Z,90
2018-05-12T04:25:29.194Z,95
2018-05-12T04:26:30.844Z,95
2018-05-12T04:27:32.492Z,100
2018-05-12T04:28:34.153Z,100
2018-05-12T04:29:35.809Z,100
2018-05-12T04:30:37.463Z,105
2018-05-12T04:31:39.145Z,105
2018-05-12T04:32:40.777Z,110
2018-05-12T04:33:42.433Z,110
2018-05-12T04:34:44.090Z,110
2018-05-12T04:35:45.742Z,115
2018-05-12T04:36:47.433Z,115
2018-05-12T04:37:49.093Z,120
2018-05-12T04:38:50.764Z,125
2018-05-12T04:39:52.424Z,125
2018-05-12T04:40:54.085Z,130
2018-05-12T04:41:55.743Z,130
2018-05-12T04:42:57.393Z,135
2018-05-12T04:43:59.048Z,140
2018-05-12T04:45:00.712Z,145
2018-05-12T04:46:02.363Z,150
2018-05-12T04:47:04.026Z,150
2018-05-12T04:48:05.678Z,155
2018-05-12T04:49:07.331Z,160
2018-05-12T04:50:08.982Z,170
2018-05-12T04:51:10.639Z,185
2018-05-12T04:52:12.287Z,195
2018-05-12T04:53:13.949Z,205
2018-05-12T04:54:15.643Z,210
2018-05-12T04:55:17.253Z,215
2018-05-12T04:56:18.914Z,220
2018-05-12T04:57:20.601Z,225
2018-05-12T04:58:22.256Z,230
2018-05-12T04:59:23.911Z,235
2018-05-12T05:00:25.574Z,240
2018-05-12T05:01:27.229Z,250
2018-05-12T05:02:28.888Z,255
2018-05-12T05:03:30.558Z,265
2018-05-12T05:04:32.223Z,270
2018-05-12T05:05:33.885Z,265
2018-05-12T05:06:35.560Z,265
2018-05-12T05:07:37.223Z,280
2018-05-12T05:08:38.873Z,275
2018-05-12T05:09:40.534Z,280
2018-05-12T05:10:42.191Z,300
2018-05-12T05:11:43.859Z,305
2018-05-12T05:12:45.508Z,305
2018-05-12T05:13:47.176Z,310
2018-05-12T05:14:48.837Z,310
2018-05-12T05:15:50.497Z,310
2018-05-12T05:16:52.160Z,310
2018-05-12T05:17:53.823Z,305
2018-05-12T05:18:55.481Z,305
2018-05-12T05:19:57.152Z,310
2018-05-12T05:20:58.807Z,310
2018-05-12T05:22:00.478Z,315
2018-05-12T05:23:02.134Z,320
2018-05-12T05:24:03.791Z,320
2018-05-12T05:25:05.454Z,315
2018-05-12T05:26:07.120Z,310
2018-05-12T05:27:08.788Z,305
2018-05-12T05:28:10.457Z,310
2018-05-12T05:29:12.126Z,300
2018-05-12T05:30:13.792Z,280
2018-05-12T05:31:15.456Z,295
2018-05-12T05:32:17.120Z,290
2018-05-12T05:33:18.784Z,265
2018-05-12T05:34:20.445Z,270
2018-05-12T05:35:22.101Z,260
2018-05-12T05:36:23.766Z,255
2018-05-12T05:37:25.431Z,255
2018-05-12T05:38:27.108Z,255
2018-05-12T05:39:28.768Z,255
2018-05-12T05:40:30.442Z,260
2018-05-12T05:41:32.182Z,265
2018-05-12T05:42:33.726Z,280
2018-05-12T05:43:35.386Z,285
2018-05-12T05:44:37.054Z,275
2018-05-12T05:45:38.715Z,280
2018-05-12T05:46:40.377Z,285
2018-05-12T05:47:42.046Z,290
2018-05-12T05:48:43.870Z,295
2018-05-12T05:49:45.527Z,300
2018-05-12T05:50:47.191Z,310
2018-05-12T05:51:48.850Z,315
2018-05-12T05:52:50.513Z,325
2018-05-12T05:53:52.179Z,330
2018-05-12T05:54:53.837Z,335
2018-05-12T06:01:36.024Z,445
2018-05-12T06:02:37.677Z,455
2018-05-12T06:04:29.574Z,460
2018-05-12T06:05:31.232Z,460
2018-05-12T06:07:23.159Z,455
2018-05-12T06:08:24.817Z,460
2018-05-12T06:10:16.733Z,455
2018-05-12T06:11:18.396Z,430
2018-05-12T06:13:10.405Z,450
2018-05-12T06:14:12.071Z,395
2018-05-12T06:16:03.970Z,440
2018-05-12T06:17:05.631Z,410
2018-05-12T06:18:57.525Z,415
2018-05-12T06:19:59.184Z,430
2018-05-12T06:21:51.116Z,465
2018-05-12T06:22:52.775Z,525
2018-05-12T06:24:44.700Z,545
2018-05-12T06:25:46.368Z,545
2018-05-12T06:27:38.268Z,535
2018-05-12T06:28:39.930Z,530
2018-05-12T06:30:32.333Z,560
2018-05-12T06:31:33.995Z,590
2018-05-12T06:33:25.976Z,585
2018-05-12T06:34:27.588Z,575
2018-05-12T06:36:19.486Z,605
2018-05-12T06:37:21.153Z,630
2018-05-12T06:39:13.048Z,635
2018-05-12T06:40:14.701Z,630
2018-05-12T06:42:06.652Z,620
2018-05-12T06:43:08.315Z,630
2018-05-12T06:45:00.283Z,645
2018-05-12T06:46:01.952Z,650
2018-05-12T06:47:53.863Z,655
2018-05-12T06:48:55.533Z,665
2018-05-12T06:50:47.440Z,675
2018-05-12T06:51:49.112Z,675
2018-05-12T06:53:41.011Z,660
2018-05-12T06:54:42.695Z,660
2018-05-12T06:56:34.668Z,680
2018-05-12T06:57:36.338Z,685
2018-05-12T06:59:28.263Z,690
2018-05-12T07:00:29.924Z,690
2018-05-12T07:02:21.919Z,685
2018-05-12T07:03:23.594Z,675
2018-05-12T07:04:25.265Z,685
2018-05-12T07:05:26.927Z,705
2018-05-12T07:06:28.591Z,700
2018-05-12T07:07:30.264Z,690
2018-05-12T07:08:31.944Z,705
2018-05-12T07:09:33.603Z,715
2018-05-12T07:10:35.231Z,720
2018-05-12T07:11:36.895Z,715
2018-05-12T07:12:38.560Z,725
2018-05-12T07:13:40.239Z,720
2018-05-12T07:14:41.907Z,735
2018-05-12T07:15:43.576Z,735
2018-05-12T07:16:45.252Z,775
2018-05-12T07:17:46.932Z,780
2018-05-12T07:18:48.595Z,760
2018-05-12T07:19:50.272Z,755
2018-05-12T07:20:51.949Z,765
2018-05-12T07:21:53.607Z,750
2018-05-12T07:22:55.284Z,755
2018-05-12T07:23:56.964Z,780
2018-05-12T07:24:58.627Z,795
2018-05-12T07:26:00.303Z,795
2018-05-12T07:27:01.992Z,795
2018-05-12T07:28:03.677Z,810
2018-05-12T07:29:05.364Z,855
2018-05-12T07:30:07.029Z,885
2018-05-12T07:31:08.710Z,935
2018-05-12T07:32:10.381Z,1025
2018-05-12T07:33:12.166Z,1090
2018-05-12T07:34:13.841Z,1145
2018-05-12T07:35:16.237Z,1205
2018-05-12T07:36:17.773Z,1305
2018-05-12T07:37:19.451Z,1485
2018-05-12T07:38:21.187Z,1735
2018-05-12T07:39:22.871Z,1955
2018-05-12T07:40:24.562Z,2235
2018-05-12T07:41:26.237Z,2375
2018-05-12T07:42:27.920Z,2410
2018-05-12T07:43:29.592Z,2610
2018-05-12T07:44:31.295Z,2775
2018-05-12T07:45:32.991Z,2850
2018-05-12T07:46:34.680Z,2870
2018-05-12T07:47:36.367Z,2895
2018-05-12T07:48:38.044Z,2930
2018-05-12T07:49:39.709Z,2875
2018-05-12T07:50:41.385Z,2745
2018-05-12T07:51:43.061Z,2670
2018-05-12T07:52:44.769Z,2655
2018-05-12T07:53:55.009Z,2695
2018-05-12T07:55:06.768Z,2675
2018-05-12T07:56:19.190Z,2550
2018-05-12T07:57:26.386Z,2405
2018-05-12T08:06:27.839Z,565
2018-05-12T08:07:36.699Z,850
2018-05-12T08:08:42.411Z,1855
2018-05-12T08:09:44.612Z,1880
2018-05-12T08:10:46.779Z,1900
2018-05-12T08:11:48.659Z,1970
2018-05-12T08:12:50.629Z,2045
2018-05-12T08:13:52.321Z,2060
2018-05-12T08:14:54.097Z,2020
2018-05-12T08:15:55.766Z,1960
2018-05-12T08:16:57.497Z,1960
2018-05-12T08:17:59.235Z,2050
2018-05-12T08:19:00.965Z,2105
2018-05-12T08:20:02.702Z,2085
2018-05-12T08:21:04.468Z,2045
2018-05-12T08:22:06.183Z,865
2018-05-12T08:23:07.950Z,1525
2018-05-12T08:24:09.728Z,1385
2018-05-12T08:25:11.402Z,1570
2018-05-12T08:26:13.094Z,1020
2018-05-12T08:28:24.428Z,1790
2018-05-12T08:29:26.087Z,1685
2018-05-12T08:30:27.773Z,955
2018-05-12T08:31:29.483Z,830
2018-05-12T08:32:31.147Z,1195
2018-05-12T08:33:32.818Z,1730
2018-05-12T08:34:34.503Z,1535
2018-05-12T08:35:36.194Z,1890
2018-05-12T08:36:37.870Z,1880
2018-05-12T08:37:39.541Z,1875
2018-05-12T08:38:41.219Z,1365
2018-05-12T08:39:42.904Z,1810
2018-05-12T08:40:44.584Z,1830
2018-05-12T08:41:46.275Z,1835
2018-05-12T08:42:47.976Z,1840
2018-05-12T08:43:49.656Z,1865
2018-05-12T08:44:51.336Z,1885
2018-05-12T08:45:53.007Z,1910
2018-05-12T08:46:54.690Z,1905
2018-05-12T08:47:56.376Z,1930
2018-05-12T08:48:58.053Z,1830
2018-05-12T08:49:59.732Z,1545
2018-05-12T08:51:01.417Z,1855
2018-05-12T08:52:03.122Z,1870
2018-05-12T08:53:04.796Z,1965
2018-05-12T08:54:06.475Z,2130
2018-05-12T08:55:08.210Z,2260
2018-05-12T08:56:09.887Z,2260
2018-05-12T08:57:11.562Z,2185
2018-05-12T08:58:13.247Z,2110
2018-05-12T08:59:14.917Z,2180
2018-05-12T09:00:16.590Z,2240
2018-05-12T09:01:18.270Z,2225
2018-05-12T09:02:19.942Z,1960
2018-05-12T09:03:21.620Z,1970
2018-05-12T09:04:23.307Z,1960
2018-05-12T09:05:24.981Z,1985
2018-05-12T09:06:26.659Z,2025
2018-05-12T09:07:28.335Z,1975
2018-05-12T09:08:30.020Z,1955
2018-05-12T09:09:31.699Z,1915
2018-05-12T09:10:33.759Z,2085
2018-05-12T09:11:35.440Z,2000
2018-05-12T09:12:37.968Z,2080
2018-05-12T09:13:39.938Z,2110
2018-05-12T09:14:41.647Z,2115
2018-05-12T09:15:43.321Z,2140
2018-05-12T09:16:45.001Z,2165
2018-05-12T09:17:46.687Z,2165
2018-05-12T09:18:48.372Z,2140
2018-05-12T09:19:50.561Z,2215
2018-05-12T09:20:52.250Z,2235
2018-05-12T09:21:53.928Z,2280
2018-05-12T09:22:55.613Z,2300
2018-05-12T09:23:57.295Z,2330
2018-05-12T09:24:59.000Z,2315
2018-05-12T09:26:00.681Z,2250
2018-05-12T09:27:02.377Z,2245
2018-05-12T09:28:04.078Z,2220
2018-05-12T09:29:05.788Z,2250
2018-05-12T09:30:07.504Z,2280
2018-05-12T09:31:09.184Z,2315
2018-05-12T09:32:10.867Z,2320
2018-05-12T09:33:12.547Z,2350
2018-05-12T09:34:14.235Z,2380
2018-05-12T09:35:15.918Z,2390
2018-05-12T09:36:17.601Z,2345
2018-05-12T09:37:19.288Z,2310
2018-05-12T09:38:20.959Z,2310
2018-05-12T09:39:22.640Z,2190
2018-05-12T09:40:24.323Z,1400
2018-05-12T09:41:25.999Z,1680
2018-05-12T09:42:27.738Z,1435
2018-05-12T09:43:29.328Z,2075
2018-05-12T09:44:31.007Z,2015
2018-05-12T09:45:32.691Z,2030
2018-05-12T09:46:34.378Z,2020
2018-05-12T09:47:36.061Z,2020
2018-05-12T09:48:37.772Z,2030
2018-05-12T09:49:39.445Z,2045
2018-05-12T09:50:41.131Z,2055
2018-05-12T09:51:42.814Z,1945
2018-05-12T09:52:44.510Z,1905
2018-05-12T09:53:46.193Z,1870
2018-05-12T09:54:47.916Z,2025
2018-05-12T10:01:09.660Z,4150
2018-05-12T10:02:11.322Z,3780
2018-05-12T10:03:13.005Z,2680
2018-05-12T10:04:14.683Z,2845
2018-05-12T10:05:16.373Z,3390
2018-05-12T10:06:18.051Z,3475
2018-05-12T10:07:19.734Z,3585
2018-05-12T10:08:21.414Z,3555
2018-05-12T10:09:23.092Z,1400
2018-05-12T10:10:24.772Z,1315
2018-05-12T10:11:26.455Z,3375
2018-05-12T10:12:28.155Z,1700
2018-05-12T10:13:29.825Z,1660
2018-05-12T10:14:31.516Z,3555
2018-05-12T10:15:33.204Z,1805
2018-05-12T10:16:34.881Z,1490
2018-05-12T10:17:36.565Z,1180
2018-05-12T10:18:38.234Z,1295
2018-05-12T10:19:39.916Z,1210
2018-05-12T10:20:41.590Z,2175
2018-05-12T10:21:43.273Z,2780
2018-05-12T10:22:44.952Z,1440
2018-05-12T10:23:46.621Z,1075
2018-05-12T10:24:48.294Z,1090
2018-05-12T10:25:49.975Z,1065
2018-05-12T10:26:51.692Z,1025
2018-05-12T10:27:53.381Z,990
2018-05-12T10:28:55.056Z,980
2018-05-12T10:29:56.737Z,1035
2018-05-12T10:30:58.426Z,1260
2018-05-12T10:32:00.112Z,3600
2018-05-12T10:33:01.776Z,2300
2018-05-12T10:34:03.481Z,1845
2018-05-12T10:35:05.153Z,3220
2018-05-12T10:36:06.835Z,3225
2018-05-12T10:37:08.524Z,1570
2018-05-12T10:38:10.203Z,1365
2018-05-12T10:39:11.871Z,2565
2018-05-12T10:40:13.551Z,3840
2018-05-12T10:41:15.234Z,2970
2018-05-12T10:42:16.897Z,3395
2018-05-12T10:43:18.585Z,3405
2018-05-12T10:44:20.271Z,3755
2018-05-12T10:45:21.953Z,3930
2018-05-12T10:46:23.619Z,3765
2018-05-12T10:47:25.301Z,3655
2018-05-12T10:48:26.978Z,3565
2018-05-12T10:49:28.656Z,3730
2018-05-12T10:50:30.324Z,3825
2018-05-12T10:51:32.005Z,3765
2018-05-12T10:52:33.689Z,3780
2018-05-12T10:53:35.372Z,3845
2018-05-12T10:54:37.085Z,3840
2018-05-12T10:55:38.780Z,3825
2018-05-12T10:56:40.477Z,3750
2018-05-12T10:57:42.143Z,3650
2018-05-12T10:58:43.828Z,3640
2018-05-12T10:59:45.504Z,3650
2018-05-12T11:00:47.185Z,3655
2018-05-12T11:01:48.931Z,3755
2018-05-12T11:02:50.546Z,3950
2018-05-12T11:03:52.232Z,3895
2018-05-12T11:04:53.924Z,4010
2018-05-12T11:05:55.598Z,3945
2018-05-12T11:06:57.298Z,3795
2018-05-12T11:07:58.974Z,3685
2018-05-12T11:09:00.667Z,3670
2018-05-12T11:10:02.338Z,3470
2018-05-12T11:11:04.049Z,3420
2018-05-12T11:12:05.728Z,3575
2018-05-12T11:13:07.401Z,3800
2018-05-12T11:14:09.080Z,3865
2018-05-12T11:15:10.925Z,3750
2018-05-12T11:16:12.580Z,3935
2018-05-12T11:17:14.160Z,3840
2018-05-12T11:18:15.838Z,3685
2018-05-12T11:19:17.533Z,3965
2018-05-12T11:20:19.248Z,4060
2018-05-12T11:21:20.887Z,3850
2018-05-12T11:22:22.570Z,3915
2018-05-12T11:23:24.266Z,3915
2018-05-12T11:24:25.935Z,3800
2018-05-12T11:25:27.609Z,3960
2018-05-12T11:26:29.297Z,3950
2018-05-12T11:27:31.128Z,3965
2018-05-12T11:28:32.797Z,3805
2018-05-12T11:29:34.475Z,3730
2018-05-12T11:30:36.170Z,3640
2018-05-12T11:31:37.937Z,3685
2018-05-12T11:32:39.572Z,3585
2018-05-12T11:33:41.589Z,3495
2018-05-12T11:34:45.167Z,3490
2018-05-12T11:35:47.006Z,3570
2018-05-12T11:36:48.816Z,3510
2018-05-12T11:37:50.484Z,3470
2018-05-12T11:38:53.525Z,3360
2018-05-12T11:39:56.888Z,3350
2018-05-12T11:41:00.151Z,3195
2018-05-12T11:42:02.524Z,3185
2018-05-12T11:43:04.203Z,3570
2018-05-12T11:44:05.965Z,3730
2018-05-12T11:45:07.560Z,3760
2018-05-12T11:46:09.236Z,3665
2018-05-12T11:47:10.912Z,3585
2018-05-12T11:48:12.597Z,3455
2018-05-12T11:49:14.288Z,3395
2018-05-12T11:50:15.982Z,3450
2018-05-12T11:51:17.734Z,3265
2018-05-12T11:52:19.333Z,3365
2018-05-12T11:53:21.019Z,3275
2018-05-12T11:54:22.699Z,3455
2018-05-12T11:55:24.382Z,3385
2018-05-12T11:56:26.061Z,3300
2018-05-12T11:57:27.747Z,3295
2018-05-12T11:58:29.419Z,3185
2018-05-12T11:59:31.093Z,3305
2018-05-12T12:00:32.767Z,3505
2018-05-12T12:01:34.451Z,3330
2018-05-12T12:02:36.172Z,2965
2018-05-12T12:03:37.850Z,1785
2018-05-12T12:04:39.506Z,1165
2018-05-12T12:05:41.175Z,1140
2018-05-12T12:06:42.870Z,1625
2018-05-12T12:07:44.543Z,2790
2018-05-12T12:08:46.218Z,3465
2018-05-12T12:09:47.910Z,3530
2018-05-12T12:10:49.604Z,3435
2018-05-12T12:11:51.404Z,3405
2018-05-12T12:12:53.086Z,3230
2018-05-12T12:13:54.776Z,3115
2018-05-12T12:14:56.450Z,3090
2018-05-12T12:15:58.252Z,2945
2018-05-12T12:16:59.938Z,2730
2018-05-12T12:18:01.651Z,2725
2018-05-12T12:19:03.306Z,2910
2018-05-12T12:20:04.978Z,3085
2018-05-12T12:21:06.658Z,2945
2018-05-12T12:22:08.346Z,3150
2018-05-12T12:23:10.024Z,3300
2018-05-12T12:24:11.705Z,3250
2018-05-12T12:25:13.383Z,2990
2018-05-12T12:26:15.054Z,3015
2018-05-12T12:27:16.738Z,3095
2018-05-12T12:28:18.458Z,3040
2018-05-12T12:29:20.160Z,3215
2018-05-12T12:30:21.821Z,3150
2018-05-12T12:31:23.590Z,3190
2018-05-12T12:32:25.395Z,3060
2018-05-12T12:33:27.260Z,3015
2018-05-12T12:34:28.792Z,3190
2018-05-12T12:35:30.629Z,3170
2018-05-12T12:36:32.307Z,3065
2018-05-12T12:37:34.028Z,3145
2018-05-12T12:38:36.017Z,3110
2018-05-12T12:39:37.832Z,2980
2018-05-12T12:40:39.557Z,2980
2018-05-12T12:41:41.281Z,2970
2018-05-12T12:42:42.970Z,2895
2018-05-12T12:43:44.664Z,1125
2018-05-12T12:44:46.338Z,945
2018-05-12T12:45:48.079Z,825
2018-05-12T12:46:49.734Z,790
2018-05-12T12:47:51.803Z,885
2018-05-12T12:48:53.604Z,1290
2018-05-12T12:49:55.440Z,2525
2018-05-12T12:50:57.146Z,975
2018-05-12T12:51:58.820Z,910
2018-05-12T12:53:00.644Z,915
2018-05-12T12:54:02.497Z,895
2018-05-12T12:55:04.176Z,885
2018-05-12T12:56:05.856Z,810
2018-05-12T12:57:07.533Z,860
2018-05-12T12:58:09.201Z,1290
2018-05-12T12:59:10.879Z,2070
2018-05-12T13:00:12.561Z,2735
2018-05-12T13:01:14.242Z,2900
2018-05-12T13:02:15.913Z,2895
2018-05-12T13:03:17.587Z,2925
2018-05-12T13:04:19.267Z,2985
2018-05-12T13:05:20.936Z,2925
2018-05-12T13:06:22.613Z,2910
2018-05-12T13:07:24.287Z,925
2018-05-12T13:08:25.981Z,855
2018-05-12T13:09:27.646Z,915
2018-05-12T13:10:29.319Z,950
2018-05-12T13:11:30.991Z,1375
2018-05-12T13:12:32.660Z,2685
2018-05-12T13:13:34.347Z,2740
2018-05-12T13:14:36.010Z,2635
2018-05-12T13:15:37.699Z,2745
2018-05-12T13:16:39.372Z,2715
2018-05-12T13:17:41.053Z,2675
2018-05-12T13:18:42.739Z,2650
2018-05-12T13:19:44.417Z,2610
2018-05-12T13:20:46.087Z,2565
2018-05-12T13:21:47.787Z,2695
2018-05-12T13:22:49.471Z,2715
2018-05-12T13:23:51.142Z,2620
2018-05-12T13:24:52.817Z,2655
2018-05-12T13:25:54.537Z,2645
2018-05-12T13:26:56.215Z,2555
2018-05-12T13:27:57.930Z,2625
2018-05-12T13:28:59.576Z,2595
2018-05-12T13:30:01.250Z,2505
2018-05-12T13:31:02.970Z,2445
2018-05-12T13:32:04.651Z,2455
2018-05-12T13:33:06.331Z,2485
2018-05-12T13:34:08.009Z,2610
2018-05-12T13:35:09.686Z,2580
2018-05-12T13:36:11.365Z,2485
2018-05-12T13:37:13.052Z,2565
2018-05-12T13:38:14.723Z,2465
2018-05-12T13:39:16.404Z,2500
2018-05-12T13:40:18.161Z,2520
2018-05-12T13:41:19.724Z,2595
2018-05-12T13:42:21.407Z,2620
2018-05-12T13:43:23.085Z,2625
2018-05-12T13:44:24.789Z,2670
2018-05-12T13:45:26.460Z,2595
2018-05-12T13:46:28.136Z,2555
2018-05-12T13:47:29.820Z,2580
2018-05-12T13:48:31.540Z,2380
2018-05-12T13:49:33.224Z,2280
2018-05-12T13:50:34.899Z,2335
2018-05-12T13:51:36.534Z,2470
2018-05-12T13:52:38.254Z,915
2018-05-12T13:53:39.922Z,885
2018-05-12T13:54:41.610Z,740
2018-05-12T13:55:43.334Z,760
2018-05-12T14:01:58.184Z,2045
2018-05-12T14:02:59.851Z,1080
2018-05-12T14:04:01.526Z,1575
2018-05-12T14:05:03.214Z,1520
2018-05-12T14:06:04.892Z,830
2018-05-12T14:07:06.559Z,1115
2018-05-12T14:08:08.231Z,2190
2018-05-12T14:09:09.903Z,1300
2018-05-12T14:10:11.581Z,965
2018-05-12T14:11:13.268Z,2070
2018-05-12T14:12:14.944Z,2145
2018-05-12T14:13:16.624Z,1515
2018-05-12T14:14:18.298Z,1635
2018-05-12T14:15:19.978Z,2110
2018-05-12T14:16:21.661Z,2290
2018-05-12T14:17:23.334Z,2315
2018-05-12T14:18:25.010Z,2315
2018-05-12T14:19:26.677Z,2295
2018-05-12T14:20:28.361Z,2305
2018-05-12T14:21:30.044Z,2225
2018-05-12T14:22:31.705Z,2315
2018-05-12T14:23:33.394Z,2225
2018-05-12T14:24:35.087Z,2000
2018-05-12T14:25:36.760Z,1710
2018-05-12T14:26:38.452Z,2095
2018-05-12T14:27:47.401Z,2095
2018-05-12T14:28:49.304Z,2000
2018-05-12T14:29:50.984Z,2040
2018-05-12T14:30:52.661Z,2060
2018-05-12T14:31:54.343Z,2020
2018-05-12T14:32:56.035Z,1995
2018-05-12T14:33:57.715Z,2005
2018-05-12T14:34:59.410Z,2010
2018-05-12T14:36:01.106Z,2040
2018-05-12T14:37:02.790Z,2070
2018-05-12T14:38:04.479Z,2135
2018-05-12T14:39:06.166Z,2135
2018-05-12T14:40:07.845Z,2120
2018-05-12T14:41:09.552Z,2035
2018-05-12T14:42:11.223Z,1930
2018-05-12T14:43:12.923Z,1930
2018-05-12T14:44:14.601Z,1900
2018-05-12T14:45:16.279Z,1850
2018-05-12T14:46:17.954Z,1825
2018-05-12T14:47:19.635Z,1620
2018-05-12T14:48:21.323Z,1545
2018-05-12T14:49:23.007Z,1485
2018-05-12T14:50:24.704Z,1315
2018-05-12T14:51:26.369Z,1125
2018-05-12T14:52:28.059Z,1070
2018-05-12T14:53:29.723Z,1125
2018-05-12T14:54:31.403Z,1120
2018-05-12T14:55:33.072Z,1170
2018-05-12T14:56:34.754Z,1290
2018-05-12T14:57:36.431Z,1310
2018-05-12T14:58:38.113Z,1245
2018-05-12T14:59:39.782Z,1200
2018-05-12T15:00:41.475Z,1135
2018-05-12T15:01:43.140Z,1010